Time;durP1;ratioP1;P1;durP2;ratioP2;P2;SDS_P1;SDS_P2;PMS_P1;PMS_P2;Temp;Humidity;BMP_temperature;BMP_pressure;BME280_temperature;BME280_humidity;BME280_pressure;Samples;Min_cycle;Max_cycle;Signal;HPM_P1;HPM_P2
2023/01/09 00:01:32;;;;;;;9.75;7.43;;;7.80;43.30;;;;;;7390182;19;20010;-75
2023/01/09 00:04:05;;;;;;;9.50;6.50;;;7.70;43.20;;;;;;7389671;19;20029;-75
2023/01/09 00:06:35;;;;;;;10.38;6.30;;;7.70;42.90;;;;;;7389692;19;20133;-76
2023/01/09 00:09:05;;;;;;;8.95;6.22;;;7.70;42.90;;;;;;7388750;19;20019;-76
2023/01/09 00:11:35;;;;;;;8.00;6.45;;;7.80;42.70;;;;;;7388757;19;20470;-76
2023/01/09 00:14:06;;;;;;;7.75;6.32;;;7.80;42.20;;;;;;7392973;19;20014;-76
2023/01/09 00:16:35;;;;;;;8.77;6.60;;;7.80;41.70;;;;;;7389454;19;20110;-75
2023/01/09 00:19:08;;;;;;;7.35;5.43;;;7.70;41.60;;;;;;7387948;19;20046;-76
2023/01/09 00:21:38;;;;;;;7.70;5.88;;;7.80;41.10;;;;;;7389766;19;20014;-75
2023/01/09 00:24:09;;;;;;;7.05;5.80;;;7.80;40.60;;;;;;7387737;19;20024;-75
2023/01/09 00:26:39;;;;;;;7.68;5.93;;;7.70;40.40;;;;;;7388053;19;20028;-75
2023/01/09 00:29:09;;;;;;;7.32;5.57;;;7.80;41.20;;;;;;7387526;19;20022;-76
2023/01/09 00:31:38;;;;;;;6.22;5.38;;;7.80;40.90;;;;;;7388017;19;20053;-75
2023/01/09 00:34:11;;;;;;;8.70;6.03;;;7.80;41.10;;;;;;7389029;19;20060;-76
2023/01/09 00:36:41;;;;;;;6.80;5.72;;;7.70;41.20;;;;;;7389404;19;20048;-76
2023/01/09 00:39:11;;;;;;;7.88;5.40;;;7.70;41.50;;;;;;7387141;19;20506;-77
2023/01/09 00:41:43;;;;;;;6.90;5.47;;;7.70;41.50;;;;;;7388716;19;20015;-76
2023/01/09 00:44:17;;;;;;;8.05;5.30;;;7.70;42.30;;;;;;7388523;19;20014;-75
2023/01/09 00:46:50;;;;;;;6.72;5.03;;;7.70;42.30;;;;;;7388722;19;20019;-76
2023/01/09 00:49:23;;;;;;;6.22;4.93;;;7.70;42.60;;;;;;7387027;19;20245;-76
2023/01/09 00:51:56;;;;;;;6.40;4.57;;;7.70;42.70;;;;;;7387786;19;20039;-76
2023/01/09 00:54:26;;;;;;;6.78;4.97;;;7.70;42.90;;;;;;7388173;19;20418;-76
2023/01/09 00:56:58;;;;;;;6.22;3.90;;;7.70;42.20;;;;;;7388819;19;20082;-76
2023/01/09 00:59:28;;;;;;;5.78;4.07;;;7.70;41.60;;;;;;7386622;19;20031;-76
2023/01/09 01:01:58;;;;;;;5.45;3.15;;;7.70;42.30;;;;;;7394747;19;20015;-75
2023/01/09 01:09:55;;;;;;;3.78;2.70;;;7.80;41.10;;;;;;7392860;19;20073;-75
2023/01/09 01:12:25;;;;;;;3.97;2.72;;;7.80;40.40;;;;;;7394060;19;20017;-76
2023/01/09 01:14:55;;;;;;;3.50;2.60;;;7.80;40.40;;;;;;7395352;19;20032;-75
2023/01/09 01:17:25;;;;;;;3.33;2.40;;;7.80;39.90;;;;;;7395485;19;20017;-76
2023/01/09 01:19:57;;;;;;;2.17;1.48;;;7.80;39.20;;;;;;7391344;19;20517;-75
2023/01/09 01:22:27;;;;;;;2.78;1.92;;;7.90;36.20;;;;;;7395435;19;20014;-75
2023/01/09 01:24:57;;;;;;;2.20;1.60;;;7.90;36.20;;;;;;7394024;19;20021;-75
2023/01/09 01:27:27;;;;;;;2.15;1.50;;;7.90;34.50;;;;;;7395259;19;20092;-75
2023/01/09 01:29:57;;;;;;;4.07;1.13;;;8.00;33.20;;;;;;7392256;19;20010;-77
2023/01/09 01:32:27;;;;;;;1.63;1.02;;;7.90;32.50;;;;;;7393517;19;20058;-75
2023/01/09 01:34:59;;;;;;;1.13;1.00;;;7.90;32.10;;;;;;7394888;19;20014;-76
2023/01/09 01:37:29;;;;;;;1.20;1.00;;;8.00;30.40;;;;;;7394779;19;20082;-76
2023/01/09 01:39:59;;;;;;;1.65;1.02;;;8.00;30.00;;;;;;7391908;19;20483;-75
2023/01/09 01:42:28;;;;;;;0.90;0.70;;;8.00;30.00;;;;;;7394878;19;20014;-76
2023/01/09 01:45:02;;;;;;;1.30;0.90;;;8.00;29.20;;;;;;7394084;19;20018;-76
2023/01/09 01:47:42;;;;;;;5.07;0.80;;;8.00;29.70;;;;;;7394576;19;20022;-76
2023/01/09 01:50:19;;;;;;;1.10;0.80;;;7.90;28.50;;;;;;7391478;19;20355;-76
2023/01/09 01:52:55;;;;;;;1.20;0.98;;;7.90;28.40;;;;;;7392534;19;20018;-75
2023/01/09 01:55:26;;;;;;;0.70;0.60;;;7.90;29.20;;;;;;7394241;19;20021;-75
2023/01/09 01:58:00;;;;;;;1.02;0.88;;;7.90;28.30;;;;;;7394435;19;20037;-75
2023/01/09 02:00:32;;;;;;;;;;;7.90;29.50;;;;;;7391507;19;20086;-75
2023/01/09 02:03:03;;;;;;;0.77;0.50;;;7.90;29.20;;;;;;7394208;19;19919;-75
2023/01/09 02:05:37;;;;;;;1.20;0.60;;;7.90;29.30;;;;;;7393707;19;20022;-75
2023/01/09 02:08:08;;;;;;;0.85;0.70;;;7.90;28.50;;;;;;7392052;19;20082;-77
2023/01/09 02:10:40;;;;;;;0.90;0.60;;;7.90;28.30;;;;;;7391018;19;20014;-76
2023/01/09 02:13:11;;;;;;;1.20;0.65;;;7.90;28.30;;;;;;7392897;19;20011;-76
2023/01/09 02:15:51;;;;;;;0.80;0.50;;;7.90;28.30;;;;;;7393296;19;20014;-76
2023/01/09 02:18:39;;;;;;;1.98;0.75;;;7.90;28.20;;;;;;7392680;19;20014;-75
2023/01/09 02:21:19;;;;;;;2.40;0.75;;;7.90;28.40;;;;;;7392951;19;20030;-77
2023/01/09 02:24:09;;;;;;;0.73;0.40;;;7.90;28.60;;;;;;7393236;19;20013;-75
2023/01/09 02:27:03;;;;;;;0.80;0.60;;;7.90;29.00;;;;;;7393425;19;20356;-76
2023/01/09 02:30:10;;;;;;;1.20;0.70;;;7.90;28.30;;;;;;7388963;19;20409;-76
2023/01/09 02:32:51;;;;;;;0.85;0.50;;;7.90;28.30;;;;;;7392582;19;20010;-75
2023/01/09 02:36:00;;;;;;;0.73;0.60;;;7.80;28.20;;;;;;7392905;19;20380;-76
2023/01/09 02:38:37;;;;;;;0.55;0.50;;;7.80;30.00;;;;;;7390588;19;20025;-76
2023/01/09 02:41:14;;;;;;;1.10;0.57;;;7.80;29.90;;;;;;7392647;19;20034;-76
2023/01/09 02:43:44;;;;;;;1.20;0.55;;;7.90;30.00;;;;;;7393039;19;20379;-75
2023/01/09 02:46:20;;;;;;;2.30;0.55;;;7.80;29.00;;;;;;7392480;19;20094;-76
2023/01/09 02:48:55;;;;;;;1.25;0.52;;;7.90;28.30;;;;;;7391227;19;20025;-76
2023/01/09 02:51:35;;;;;;;1.88;0.60;;;7.80;28.60;;;;;;7392207;19;20017;-76
2023/01/09 02:54:17;;;;;;;1.02;0.65;;;7.80;28.20;;;;;;7390567;19;20354;-76
2023/01/09 02:57:08;;;;;;;0.82;0.40;;;7.90;27.70;;;;;;7392114;19;20026;-75
2023/01/09 02:59:49;;;;;;;1.65;0.75;;;7.90;26.70;;;;;;7390824;19;20042;-75
2023/01/09 03:02:43;;;;;;;0.68;0.50;;;7.90;27.30;;;;;;7391993;19;20014;-76
2023/01/09 03:05:20;;;;;;;0.40;0.38;;;7.80;26.80;;;;;;7390178;19;20515;-76
2023/01/09 03:07:58;;;;;;;0.45;0.32;;;7.90;26.20;;;;;;7391742;19;20015;-76
2023/01/09 03:10:34;;;;;;;0.45;0.35;;;7.90;25.80;;;;;;7389336;19;20070;-76
2023/01/09 03:13:05;;;;;;;0.50;0.35;;;7.90;24.50;;;;;;7391548;19;20037;-76
2023/01/09 03:15:38;;;;;;;0.88;0.30;;;7.90;24.10;;;;;;7392132;19;20011;-76
2023/01/09 03:18:11;;;;;;;0.70;0.43;;;7.90;23.20;;;;;;7391274;19;20039;-76
2023/01/09 03:20:45;;;;;;;0.40;0.30;;;8.00;23.00;;;;;;7391184;19;20057;-77
2023/01/09 03:23:15;;;;;;;0.98;0.50;;;8.00;22.30;;;;;;7390491;19;20504;-76
2023/01/09 03:25:45;;;;;;;0.47;0.40;;;8.00;21.50;;;;;;7391426;19;20018;-77
2023/01/09 03:28:26;;;;;;;0.43;0.30;;;8.00;21.20;;;;;;7390767;19;20077;-76
2023/01/09 03:30:56;;;;;;;0.32;0.30;;;8.00;20.60;;;;;;7390842;19;20031;-76
2023/01/09 03:33:27;;;;;;;1.10;0.43;;;8.00;20.50;;;;;;7389929;19;20045;-76
2023/01/09 03:36:00;;;;;;;0.45;0.40;;;8.00;20.60;;;;;;7390697;19;20019;-76
2023/01/09 03:38:29;;;;;;;0.60;0.40;;;8.00;21.50;;;;;;7389952;19;20035;-76
2023/01/09 03:40:59;;;;;;;0.40;0.22;;;8.00;21.50;;;;;;7390661;19;20025;-77
2023/01/09 03:43:29;;;;;;;0.73;0.30;;;8.00;21.60;;;;;;7390645;19;20063;-76
2023/01/09 03:45:59;;;;;;;0.60;0.20;;;8.00;21.50;;;;;;7390830;19;20010;-76
2023/01/09 03:48:29;;;;;;;0.22;0.20;;;8.00;21.60;;;;;;7389753;19;20018;-76
2023/01/09 03:51:02;;;;;;;0.55;0.28;;;8.00;21.80;;;;;;7390407;19;20014;-76
2023/01/09 03:53:31;;;;;;;0.50;0.25;;;8.00;23.20;;;;;;7389294;19;20011;-77
2023/01/09 03:56:01;;;;;;;0.65;0.28;;;7.90;24.90;;;;;;7390736;19;20014;-77
2023/01/09 03:58:31;;;;;;;0.30;0.17;;;7.70;25.20;;;;;;7387956;19;20019;-76
2023/01/09 04:01:03;;;;;;;0.88;0.28;;;7.50;21.80;;;;;;7388861;19;20026;-76
2023/01/09 04:03:33;;;;;;;0.30;0.20;;;7.30;23.60;;;;;;7389733;19;20043;-76
2023/01/09 04:06:06;;;;;;;0.70;0.20;;;7.10;20.90;;;;;;7389667;19;20486;-77
2023/01/09 04:08:36;;;;;;;1.10;0.22;;;7.00;21.40;;;;;;7388905;19;20082;-76
2023/01/09 04:11:06;;;;;;;0.55;0.20;;;6.90;21.70;;;;;;7389724;19;20007;-76
2023/01/09 04:13:36;;;;;;;0.22;0.10;;;6.90;23.80;;;;;;7390906;19;20086;-76
2023/01/09 04:16:06;;;;;;;0.57;0.22;;;6.80;20.70;;;;;;7389653;19;20031;-76
2023/01/09 04:18:36;;;;;;;0.30;0.10;;;6.80;20.80;;;;;;7388981;19;20125;-77
2023/01/09 04:21:09;;;;;;;1.27;0.13;;;6.70;20.70;;;;;;7389823;19;20006;-76
2023/01/09 04:23:39;;;;;;;0.20;0.10;;;6.70;19.00;;;;;;7389386;19;20016;-77
2023/01/09 04:26:09;;;;;;;0.40;0.20;;;6.60;18.50;;;;;;7389256;19;20018;-76
2023/01/09 04:28:39;;;;;;;0.20;0.17;;;6.60;18.40;;;;;;7388404;19;20018;-76
2023/01/09 04:31:09;;;;;;;1.30;0.20;;;6.60;18.10;;;;;;7389107;19;20014;-75
2023/01/09 04:33:38;;;;;;;0.57;0.20;;;6.50;17.10;;;;;;7388568;19;20014;-76
2023/01/09 04:36:11;;;;;;;0.20;0.10;;;6.50;16.70;;;;;;7386964;19;20482;-76
2023/01/09 04:38:41;;;;;;;0.38;0.28;;;6.50;16.30;;;;;;7388049;19;20356;-76
2023/01/09 04:41:47;;;;;;;0.40;0.30;;;6.50;16.60;;;;;;7388810;19;20304;-76
2023/01/09 04:44:01;;;;;;;0.40;0.20;;;6.50;17.10;;;;;;7388565;19;20011;-76
2023/01/09 04:46:30;;;;;;;0.75;0.20;;;6.50;17.20;;;;;;7387831;19;20015;-75
2023/01/09 04:49:00;;;;;;;0.65;0.20;;;6.50;17.10;;;;;;7385485;19;20397;-76
2023/01/09 04:51:33;;;;;;;0.40;0.20;;;6.40;16.70;;;;;;7388547;19;20014;-75
2023/01/09 04:54:02;;;;;;;0.70;0.25;;;6.50;16.40;;;;;;7387479;19;20090;-76
2023/01/09 04:56:32;;;;;;;0.30;0.28;;;6.50;15.10;;;;;;7388393;19;20033;-76
2023/01/09 04:59:02;;;;;;;1.50;0.22;;;6.50;14.00;;;;;;7386928;19;20034;-76
2023/01/09 05:01:32;;;;;;;0.50;0.28;;;6.50;15.30;;;;;;7388468;19;20035;-76
2023/01/09 05:04:03;;;;;;;0.52;0.38;;;6.50;14.20;;;;;;7387996;19;20015;-75
2023/01/09 05:06:36;;;;;;;0.82;0.30;;;6.50;13.50;;;;;;7388140;19;20011;-77
2023/01/09 05:09:05;;;;;;;0.32;0.20;;;6.50;13.00;;;;;;7386780;19;20011;-76
2023/01/09 05:11:35;;;;;;;3.10;0.70;;;6.50;10.00;;;;;;7388404;19;20011;-76
2023/01/09 05:14:05;;;;;;;1.05;0.45;;;6.50;9.50;;;;;;7389921;19;20366;-76
2023/01/09 05:16:35;;;;;;;0.98;0.50;;;6.50;9.90;;;;;;7387774;19;20015;-76
2023/01/09 05:19:05;;;;;;;0.65;0.40;;;6.60;8.90;;;;;;7386524;19;20365;-76
2023/01/09 05:21:37;;;;;;;3.22;0.40;;;6.60;9.20;;;;;;7387758;19;20089;-76
2023/01/09 05:24:07;;;;;;;1.58;0.50;;;6.60;9.50;;;;;;7387734;19;20035;-76
2023/01/09 05:26:37;;;;;;;1.38;0.40;;;6.60;10.00;;;;;;7387638;19;20018;-76
2023/01/09 05:29:07;;;;;;;1.70;0.50;;;6.60;10.00;;;;;;7386006;19;20049;-76
2023/01/09 05:31:37;;;;;;;1.10;0.40;;;6.60;8.70;;;;;;7387421;19;20339;-77
2023/01/09 05:34:07;;;;;;;2.83;0.50;;;6.60;8.60;;;;;;7385214;19;20022;-76
2023/01/09 05:36:39;;;;;;;2.50;0.70;;;6.60;8.00;;;;;;7385930;19;20007;-77
2023/01/09 05:39:09;;;;;;;1.33;0.57;;;6.60;6.30;;;;;;7386371;19;20627;-76
2023/01/09 05:41:39;;;;;;;2.75;0.70;;;6.60;4.90;;;;;;7387348;19;20585;-76
2023/01/09 05:44:09;;;;;;;3.25;0.68;;;6.60;5.20;;;;;;7387097;19;20026;-77
2023/01/09 05:46:38;;;;;;;1.88;0.90;;;6.60;4.60;;;;;;7389516;19;20018;-77
2023/01/09 05:49:08;;;;;;;1.05;0.63;;;6.50;3.70;;;;;;7392617;19;20450;-77
2023/01/09 05:51:40;;;;;;;1.17;0.70;;;6.50;4.80;;;;;;7394505;19;20011;-76
2023/01/09 05:54:10;;;;;;;2.13;0.60;;;6.40;5.40;;;;;;7393115;19;20482;-77
2023/01/09 05:56:41;;;;;;;2.80;0.63;;;6.30;5.60;;;;;;7394663;19;20018;-77
2023/01/09 05:59:11;;;;;;;5.05;0.70;;;6.30;5.20;;;;;;7390859;19;20491;-76
2023/01/09 06:01:41;;;;;;;3.22;0.73;;;6.30;5.40;;;;;;7394491;19;20010;-76
2023/01/09 06:04:10;;;;;;;1.70;0.65;;;6.20;5.20;;;;;;7393876;19;20022;-77
2023/01/09 06:06:43;;;;;;;1.15;0.60;;;6.20;4.60;;;;;;7393707;19;20014;-77
2023/01/09 06:09:13;;;;;;;1.17;0.65;;;6.20;3.40;;;;;;7390243;19;20462;-76
2023/01/09 06:11:43;;;;;;;3.38;0.70;;;6.10;4.20;;;;;;7392540;19;20018;-76
2023/01/09 06:14:13;;;;;;;3.10;0.68;;;6.10;3.30;;;;;;7396257;19;20014;-76
2023/01/09 06:16:42;;;;;;;1.15;0.63;;;6.00;3.20;;;;;;7392796;19;20025;-76
2023/01/09 06:19:12;;;;;;;2.10;0.70;;;6.00;2.30;;;;;;7392000;19;20018;-76
2023/01/09 06:21:44;;;;;;;2.25;0.88;;;5.90;2.80;;;;;;7393881;19;20010;-77
2023/01/09 06:24:14;;;;;;;2.70;1.00;;;5.90;2.20;;;;;;7392995;19;20028;-77
2023/01/09 06:26:44;;;;;;;4.80;1.10;;;5.90;1.50;;;;;;7392791;19;20021;-78
2023/01/09 06:29:14;;;;;;;5.28;1.10;;;5.90;2.20;;;;;;7390759;19;20386;-77
2023/01/09 06:31:44;;;;;;;1.40;0.60;;;5.80;2.10;;;;;;7391796;19;20019;-77
2023/01/09 06:34:14;;;;;;;3.28;1.00;;;5.80;2.50;;;;;;7392390;19;20026;-78
2023/01/09 06:36:46;;;;;;;4.28;0.80;;;5.80;2.10;;;;;;7392753;19;20074;-76
2023/01/09 06:39:16;;;;;;;1.20;0.60;;;5.80;2.10;;;;;;7391071;19;20021;-77
2023/01/09 06:41:46;;;;;;;1.85;1.08;;;5.80;2.10;;;;;;7392515;19;20010;-78
2023/01/09 06:44:17;;;;;;;2.10;0.90;;;5.70;3.80;;;;;;7392441;19;20019;-78
2023/01/09 06:46:47;;;;;;;4.18;0.90;;;5.70;4.30;;;;;;7392538;19;20018;-77
2023/01/09 06:49:22;;;;;;;3.47;1.10;;;5.70;5.30;;;;;;7389609;19;20034;-78
2023/01/09 06:51:54;;;;;;;3.70;1.02;;;5.60;5.20;;;;;;7391029;19;20376;-78
2023/01/09 06:54:24;;;;;;;7.72;1.20;;;5.60;5.60;;;;;;7391971;19;20030;-78
2023/01/09 06:56:57;;;;;;;2.88;0.80;;;5.60;4.80;;;;;;7391749;19;20034;-78
2023/01/09 06:59:27;;;;;;;1.98;0.80;;;5.60;4.30;;;;;;7386328;19;20014;-76
2023/01/09 07:01:56;;;;;;;2.88;0.90;;;5.70;5.20;;;;;;7392071;19;20082;-78
2023/01/09 07:04:26;;;;;;;4.10;0.85;;;5.70;5.10;;;;;;7391168;19;20506;-79
2023/01/09 07:06:59;;;;;;;2.28;1.00;;;5.80;5.80;;;;;;7391646;19;20014;-77
2023/01/09 07:09:29;;;;;;;2.13;0.70;;;5.80;5.00;;;;;;7389294;19;20031;-77
2023/01/09 07:11:59;;;;;;;4.68;0.93;;;5.80;5.00;;;;;;7391991;19;20021;-77
2023/01/09 07:14:28;;;;;;;1.73;0.85;;;5.80;4.60;;;;;;7393647;19;20379;-78
2023/01/09 07:16:58;;;;;;;3.05;0.70;;;5.80;5.10;;;;;;7391655;19;20016;-78
2023/01/09 07:19:29;;;;;;;3.78;1.25;;;5.90;4.50;;;;;;7387662;19;20016;-78
2023/01/09 07:22:01;;;;;;;3.70;1.35;;;5.90;4.00;;;;;;7391414;19;20014;-78
2023/01/09 07:24:31;;;;;;;4.38;1.10;;;6.00;4.30;;;;;;7391543;19;20017;-78
2023/01/09 07:27:01;;;;;;;2.00;0.90;;;6.00;3.60;;;;;;7391784;19;20014;-78
2023/01/09 07:29:31;;;;;;;4.22;1.02;;;6.00;3.00;;;;;;7388706;19;20015;-78
2023/01/09 07:32:00;;;;;;;4.63;0.90;;;6.00;2.70;;;;;;7389282;19;20018;-78
2023/01/09 07:34:30;;;;;;;2.13;1.02;;;6.10;2.40;;;;;;7390806;19;20047;-79
2023/01/09 07:37:03;;;;;;;7.43;1.13;;;6.10;1.70;;;;;;7390800;19;20013;-79
2023/01/09 07:39:32;;;;;;;2.70;0.80;;;6.20;1.00;;;;;;7389157;19;20021;-79
2023/01/09 07:42:02;;;;;;;4.60;1.17;;;6.20;1.00;;;;;;7391794;19;20015;-79
2023/01/09 07:44:32;;;;;;;3.05;0.90;;;6.10;1.00;;;;;;7389720;19;20033;-79
2023/01/09 07:47:02;;;;;;;2.70;0.93;;;6.20;1.40;;;;;;7389709;19;20044;-79
2023/01/09 07:49:32;;;;;;;5.63;1.10;;;6.20;1.20;;;;;;7387165;19;20018;-79
2023/01/09 07:52:04;;;;;;;2.30;1.10;;;6.20;1.00;;;;;;7390530;19;20010;-80
2023/01/09 07:54:34;;;;;;;5.40;0.80;;;6.30;1.50;;;;;;7388606;19;20014;-79
2023/01/09 07:57:04;;;;;;;4.00;1.33;;;6.20;1.00;;;;;;7387853;19;20014;-78
2023/01/09 07:59:34;;;;;;;4.00;1.00;;;6.20;2.30;;;;;;7386933;19;20011;-79
2023/01/09 08:02:04;;;;;;;2.65;0.80;;;6.10;1.80;;;;;;7388879;19;20015;-78
2023/01/09 08:04:34;;;;;;;3.90;1.00;;;6.20;3.00;;;;;;7389368;19;20431;-79
2023/01/09 08:07:06;;;;;;;5.35;1.20;;;6.20;3.60;;;;;;7386946;19;20116;-79
2023/01/09 08:09:36;;;;;;;2.45;1.00;;;6.20;3.00;;;;;;7386787;19;20011;-80
2023/01/09 08:12:06;;;;;;;4.05;1.08;;;6.30;1.90;;;;;;7389558;19;20350;-79
2023/01/09 08:14:37;;;;;;;4.15;1.40;;;6.30;1.00;;;;;;7393507;19;20018;-80
2023/01/09 08:17:08;;;;;;;3.25;1.17;;;6.40;2.40;;;;;;7387579;19;20025;-80
2023/01/09 08:19:38;;;;;;;10.35;1.98;;;6.50;2.10;;;;;;7385029;19;20018;-80
2023/01/09 08:22:11;;;;;;;3.65;1.10;;;6.50;2.60;;;;;;7386594;19;20021;-79
2023/01/09 08:24:41;;;;;;;5.00;1.83;;;6.60;1.70;;;;;;7386319;19;20074;-79
2023/01/09 08:27:11;;;;;;;6.28;1.30;;;6.60;1.00;;;;;;7388497;19;20038;-78
2023/01/09 08:29:40;;;;;;;5.80;1.23;;;6.60;1.00;;;;;;7386744;19;20018;-79
2023/01/09 08:32:10;;;;;;;3.35;1.00;;;6.70;1.00;;;;;;7377956;19;24520;-79
2023/01/09 08:34:40;;;;;;;2.88;0.80;;;6.70;1.00;;;;;;7388668;19;20035;-79
2023/01/09 08:37:12;;;;;;;2.88;1.20;;;6.80;1.00;;;;;;7387730;19;20003;-79
2023/01/09 08:39:44;;;;;;;1.85;1.10;;;6.90;1.00;;;;;;7384579;19;20100;-79
2023/01/09 08:47:41;;;;;;;3.38;1.10;;;7.20;1.00;;;;;;7386984;19;20366;-80
2023/01/09 08:50:12;;;;;;;2.10;0.60;;;7.40;1.00;;;;;;7381416;19;20043;-79
2023/01/09 08:52:44;;;;;;;3.65;1.00;;;7.50;1.00;;;;;;7384779;19;20024;-79
2023/01/09 08:55:14;;;;;;;4.70;1.00;;;7.60;1.00;;;;;;7384535;19;20442;-79
2023/01/09 08:57:49;;;;;;;3.42;0.70;;;7.70;1.00;;;;;;7385459;19;20025;-80
2023/01/09 09:00:20;;;;;;;1.73;0.68;;;7.60;1.00;;;;;;7382787;19;20019;-80
2023/01/09 09:02:53;;;;;;;4.53;0.82;;;7.60;1.00;;;;;;7386103;19;20015;-80
2023/01/09 09:05:23;;;;;;;3.65;0.98;;;7.60;1.00;;;;;;7385336;19;20011;-79
2023/01/09 09:07:57;;;;;;;5.50;1.02;;;7.60;1.00;;;;;;7383626;19;20016;-80
2023/01/09 09:10:28;;;;;;;3.25;0.90;;;7.50;1.00;;;;;;7382867;19;20542;-79
2023/01/09 09:13:00;;;;;;;1.88;0.60;;;7.50;1.00;;;;;;7385634;19;20089;-79
2023/01/09 09:15:30;;;;;;;2.63;0.90;;;7.40;1.00;;;;;;7385458;19;20019;-79
2023/01/09 09:18:01;;;;;;;2.47;0.70;;;7.50;1.00;;;;;;7385242;19;20026;-79
2023/01/09 09:20:34;;;;;;;1.00;0.50;;;7.50;1.00;;;;;;7382386;19;20018;-78
2023/01/09 09:23:07;;;;;;;1.02;0.60;;;7.60;1.00;;;;;;7391435;19;20754;-80
2023/01/09 09:25:38;;;;;;;5.53;0.95;;;7.70;1.00;;;;;;7390191;19;20236;-80
2023/01/09 09:28:08;;;;;;;3.88;0.90;;;7.90;1.00;;;;;;7391402;19;20023;-79
2023/01/09 09:33:32;;;;;;;4.40;1.25;;;8.20;1.00;;;;;;7425399;19;20387;-78
2023/01/09 09:36:02;;;;;;;2.05;0.57;;;8.40;1.00;;;;;;7427761;19;20038;-80
2023/01/09 09:38:32;;;;;;;2.38;0.70;;;8.50;1.00;;;;;;7423854;19;20015;-79
2023/01/09 09:47:11;;;;;;;3.38;0.60;;;8.50;1.00;;;;;;7424909;19;20033;-81
2023/01/09 09:49:54;;;;;;;3.25;0.70;;;8.30;1.00;;;;;;7420922;19;20014;-80
2023/01/09 09:52:32;;;;;;;2.85;0.88;;;8.40;1.00;;;;;;7422278;19;20014;-80
2023/01/09 09:55:07;;;;;;;2.30;0.63;;;8.30;1.00;;;;;;7423003;19;20010;-82
2023/01/09 09:57:39;;;;;;;1.85;0.70;;;8.40;1.00;;;;;;7423747;19;20049;-80
2023/01/09 10:00:18;;;;;;;2.92;0.70;;;8.40;1.00;;;;;;7418999;19;20022;-81
2023/01/09 10:02:52;;;;;;;3.28;0.80;;;8.40;1.00;;;;;;7423763;19;20077;-82
2023/01/09 10:05:30;;;;;;;2.80;0.60;;;8.40;1.00;;;;;;7421911;19;20354;-80
2023/01/09 10:08:04;;;;;;;1.70;0.60;;;8.30;1.00;;;;;;7424277;19;20006;-81
2023/01/09 10:10:49;;;;;;;2.08;1.05;;;8.20;1.00;;;;;;7424058;19;20014;-81
2023/01/09 10:16:10;;;;;;;3.80;0.80;;;8.30;1.00;;;;;;7423034;19;20450;-81
2023/01/09 10:18:50;;;;;;;3.88;1.35;;;8.20;1.00;;;;;;7422165;19;20037;-80
2023/01/09 10:21:28;;;;;;;2.80;0.90;;;8.20;1.00;;;;;;7423336;19;20077;-81
2023/01/09 10:24:29;;;;;;;2.65;1.25;;;8.30;1.00;;;;;;7422810;19;20018;-80
2023/01/09 10:27:03;;;;;;;5.82;0.88;;;8.30;1.00;;;;;;7422535;19;20010;-81
2023/01/09 10:29:50;;;;;;;3.72;0.90;;;8.40;1.00;;;;;;7421306;19;20605;-81
2023/01/09 10:32:34;;;;;;;2.55;0.73;;;8.40;1.00;;;;;;7422167;19;20011;-80
2023/01/09 10:35:10;;;;;;;;;;;8.30;1.00;;;;;;7420541;19;20034;-81
2023/01/09 10:37:47;;;;;;;1.92;0.60;;;8.40;1.00;;;;;;7421792;19;19986;-81
2023/01/09 10:40:21;;;;;;;2.10;0.85;;;8.40;1.00;;;;;;7419390;19;20027;-81
2023/01/09 10:42:56;;;;;;;3.53;0.70;;;8.40;1.00;;;;;;7418607;19;20014;-81
2023/01/09 10:45:30;;;;;;;4.57;0.82;;;8.50;1.00;;;;;;7393902;19;20023;-80
2023/01/09 10:48:06;;;;;;;2.20;0.80;;;8.50;1.00;;;;;;7394302;19;20400;-80
2023/01/09 10:50:40;;;;;;;2.10;0.93;;;8.40;1.00;;;;;;7389442;19;20077;-80
2023/01/09 10:53:21;;;;;;;1.60;0.67;;;8.40;1.00;;;;;;7392000;19;20474;-81
2023/01/09 10:55:56;;;;;;;2.00;0.52;;;8.50;1.00;;;;;;7393227;19;20254;-79
2023/01/09 10:58:26;;;;;;;2.95;0.70;;;8.60;1.00;;;;;;7390350;19;20020;-80
2023/01/09 11:00:57;;;;;;;2.55;0.60;;;8.60;1.00;;;;;;7393301;19;20007;-81
2023/01/09 11:03:29;;;;;;;1.65;0.88;;;8.70;1.00;;;;;;7392718;19;20082;-81
2023/01/09 11:06:00;;;;;;;4.93;0.98;;;8.70;1.00;;;;;;7393607;19;20014;-80
2023/01/09 11:08:40;;;;;;;2.72;1.00;;;8.60;1.00;;;;;;7392489;19;20078;-80
2023/01/09 11:11:11;;;;;;;6.90;1.00;;;8.70;1.00;;;;;;7392360;19;20014;-80
2023/01/09 11:13:47;;;;;;;4.50;1.38;;;8.80;1.00;;;;;;7391406;19;20366;-81
2023/01/09 11:16:21;;;;;;;4.93;1.25;;;8.80;1.00;;;;;;7392024;19;20019;-81
2023/01/09 11:18:54;;;;;;;5.45;0.95;;;8.70;1.00;;;;;;7391823;19;20656;-81
2023/01/09 11:21:38;;;;;;;2.72;0.90;;;8.80;1.00;;;;;;7392547;19;20015;-81
2023/01/09 11:24:30;;;;;;;2.72;0.77;;;8.70;1.00;;;;;;7393045;19;20014;-80
2023/01/09 11:27:22;;;;;;;3.80;0.93;;;8.60;1.00;;;;;;7391002;19;20501;-81
2023/01/09 11:30:14;;;;;;;3.03;1.02;;;8.50;1.00;;;;;;7389876;19;20014;-80
2023/01/09 11:32:46;;;;;;;5.10;0.85;;;8.60;1.00;;;;;;7390803;19;20018;-80
2023/01/09 11:35:25;;;;;;;3.33;0.77;;;8.60;1.00;;;;;;7390214;19;20511;-80
2023/01/09 11:38:08;;;;;;;2.80;0.90;;;8.70;1.00;;;;;;7390602;19;20011;-79
2023/01/09 11:40:49;;;;;;;3.25;0.90;;;8.70;1.00;;;;;;7347865;19;20030;-79
2023/01/09 11:43:29;;;;;;;2.45;0.75;;;8.70;1.00;;;;;;7388509;19;20010;-79
2023/01/09 11:46:01;;;;;;;5.10;0.80;;;8.80;1.00;;;;;;7361214;19;20494;-80
2023/01/09 11:48:37;;;;;;;5.18;1.10;;;8.90;1.00;;;;;;7361759;19;20010;-76
2023/01/09 11:51:19;;;;;;;4.90;0.90;;;9.10;1.00;;;;;;7363395;19;20011;-81
2023/01/09 11:53:58;;;;;;;5.22;1.05;;;9.00;1.00;;;;;;7362963;19;20034;-81
2023/01/09 11:56:31;;;;;;;4.57;1.33;;;9.00;1.00;;;;;;7361358;19;20003;-82
2023/01/09 11:59:01;;;;;;;2.38;0.80;;;9.20;1.00;;;;;;7383801;19;20050;-81
2023/01/09 12:01:54;;;;;;;2.40;0.63;;;9.10;1.00;;;;;;7362542;19;20011;-83
2023/01/09 12:04:30;;;;;;;2.10;0.63;;;9.10;1.00;;;;;;7360159;19;20061;-83
2023/01/09 12:07:28;;;;;;;4.40;1.00;;;9.10;1.00;;;;;;7363689;19;20015;-82
2023/01/09 12:10:08;;;;;;;2.75;0.70;;;9.20;1.00;;;;;;7359412;19;20624;-80
2023/01/09 12:12:53;;;;;;;2.15;1.00;;;9.20;1.00;;;;;;7362557;19;20010;-83
2023/01/09 12:15:27;;;;;;;;;;;9.00;1.00;;;;;;7358386;19;20014;-82
2023/01/09 12:18:22;;;;;;;5.90;0.98;;;9.00;1.00;;;;;;7362360;19;19919;-83
2023/01/09 12:21:14;;;;;;;4.07;1.10;;;9.00;1.00;;;;;;7361037;19;20051;-82
2023/01/09 12:23:58;;;;;;;5.45;1.08;;;9.00;1.00;;;;;;7362813;19;20202;-82
2023/01/09 12:26:33;;;;;;;5.07;1.00;;;9.00;1.00;;;;;;7361621;19;20010;-81
2023/01/09 12:29:36;;;;;;;2.58;0.77;;;9.10;1.00;;;;;;7382398;19;20013;-83
2023/01/09 12:32:32;;;;;;;0.88;0.50;;;9.00;1.00;;;;;;7361526;19;20014;-81
2023/01/09 12:35:08;;;;;;;6.85;1.00;;;8.70;1.00;;;;;;7357641;19;20010;-81
2023/01/09 12:38:07;;;;;;;4.82;0.80;;;8.70;1.00;;;;;;7362872;19;20498;-80
2023/01/09 12:41:01;;;;;;;2.72;0.80;;;8.60;1.00;;;;;;7363327;19;20506;-81
2023/01/09 12:43:44;;;;;;;2.75;0.70;;;8.60;1.00;;;;;;7390709;19;20027;-80
2023/01/09 12:46:21;;;;;;;2.70;0.60;;;8.40;1.00;;;;;;7386384;19;20024;-78
2023/01/09 12:49:12;;;;;;;1.33;0.60;;;8.30;1.00;;;;;;7391156;19;20006;-79
2023/01/09 12:51:45;;;;;;;1.85;0.65;;;8.10;1.00;;;;;;7388621;19;20085;-78
2023/01/09 12:54:22;;;;;;;4.57;1.05;;;8.10;1.00;;;;;;7382779;19;20015;-80
2023/01/09 12:56:56;;;;;;;6.80;1.85;;;8.30;1.00;;;;;;7395500;19;20010;-80
2023/01/09 12:59:35;;;;;;;4.43;0.88;;;8.60;1.70;;;;;;7386819;19;20023;-79
2023/01/09 13:02:21;;;;;;;4.13;0.73;;;8.60;1.00;;;;;;7388206;19;20019;-80
2023/01/09 13:04:58;;;;;;;5.80;1.00;;;8.60;1.00;;;;;;7386073;19;20003;-80
2023/01/09 13:07:32;;;;;;;4.82;0.90;;;8.60;1.00;;;;;;7389748;19;20030;-81
2023/01/09 13:10:08;;;;;;;2.97;0.80;;;8.60;1.00;;;;;;7386424;19;20475;-78
2023/01/09 13:12:42;;;;;;;2.92;0.70;;;8.60;1.00;;;;;;7386181;19;20471;-80
2023/01/09 13:15:26;;;;;;;1.40;0.60;;;8.60;1.00;;;;;;7383706;19;20006;-82
2023/01/09 13:18:06;;;;;;;3.65;1.10;;;8.40;1.00;;;;;;7388575;19;20338;-81
2023/01/09 13:20:41;;;;;;;3.47;0.93;;;8.40;1.00;;;;;;7388015;19;20013;-80
2023/01/09 13:23:17;;;;;;;2.90;1.00;;;8.30;1.00;;;;;;7389125;19;20006;-79
2023/01/09 13:25:50;;;;;;;2.95;1.38;;;8.30;1.00;;;;;;7382745;19;20697;-81
2023/01/09 13:28:25;;;;;;;3.55;0.90;;;8.30;1.00;;;;;;7387759;19;20015;-80
2023/01/09 13:31:11;;;;;;;1.85;0.80;;;8.40;1.00;;;;;;7385607;19;20010;-80
2023/01/09 13:33:46;;;;;;;1.88;0.50;;;8.30;1.00;;;;;;7389093;19;20038;-80
2023/01/09 13:36:25;;;;;;;0.80;0.43;;;8.40;1.00;;;;;;7385104;19;20100;-79
2023/01/09 13:38:56;;;;;;;2.58;0.73;;;8.40;1.00;;;;;;7384503;19;20007;-80
2023/01/09 13:44:27;;;;;;;1.05;0.65;;;8.40;1.00;;;;;;7383588;19;20014;-80
2023/01/09 13:47:01;;;;;;;2.05;0.50;;;8.40;1.00;;;;;;7388408;19;20014;-79
2023/01/09 13:49:55;;;;;;;2.00;0.50;;;8.30;1.00;;;;;;7386480;19;20744;-78
2023/01/09 13:52:35;;;;;;;1.40;0.55;;;8.20;1.00;;;;;;7386305;19;20015;-81
2023/01/09 13:55:29;;;;;;;1.50;0.60;;;8.10;1.00;;;;;;7382215;19;20469;-82
2023/01/09 13:58:22;;;;;;;2.92;0.70;;;8.00;1.00;;;;;;7390068;19;20050;-82
2023/01/09 14:01:01;;;;;;;5.03;1.67;;;7.90;1.00;;;;;;7388618;19;20007;-82
2023/01/09 14:03:37;;;;;;;1.75;0.57;;;7.80;1.40;;;;;;7388569;19;20114;-80
2023/01/09 14:06:28;;;;;;;3.15;1.02;;;7.80;3.40;;;;;;7381590;19;20011;-78
2023/01/09 14:09:14;;;;;;;3.05;0.88;;;7.60;5.90;;;;;;7384913;19;20018;-80